• Join FlightAware (Why Join?)
  • Login
  • US Flag 
03:17AM EST


 

Airport Tracker/Info


-or-


 

Live Flight TrackerFlight Track Log ✈ AAL832 ✈ 01-May-2013 ✈ KORD - KMIA

Flight Track Log - Related Links

Times and Time Zones

All times are in EDT time to prevent confusion due to time zone crossing. See the AAL832 flight status page for this flight to view local times or setup timezone preferences in your user account.

Time Position Orientation Groundspeed Altitude Reporting Facility
EDT Latitude Longitude Course Direction KTS MPH feet Rate Location/Type
06:11PM 41.6698 -87.7245 180° South  Level Estimated
06:12PM 41.5657 -87.6642 176° South  Level Estimated
06:13PM 41.4617 -87.6041 180° South  Level Estimated
06:14PM 41.3576 -87.5442 180° South  Level Estimated
06:15PM 41.2534 -87.4844 180° South  Level Estimated
06:16PM 41.1493 -87.4249 176° South  Level Estimated
06:17PM 41.0846 -87.5484 235° Southwest  Level FlightAware Approximate
06:18PM 40.9808 -87.4880 180° South  Level Estimated
06:19PM 40.8769 -87.4278 180° South  Level Estimated
06:20PM 40.7730 -87.3678 180° South  Level Estimated
06:21PM 40.7019 -87.4843 231° Southwest  Level FlightAware Approximate
06:22PM 40.5983 -87.4235 180° South  Level Estimated
06:23PM 40.4947 -87.3628 180° South  Level Estimated
06:24PM 40.3911 -87.3023 180° South  Level Estimated
06:25PM 40.3139 -87.4112 227° Southwest  Level FlightAware Approximate
06:26PM 40.2106 -87.3499 180° South  Level Estimated
06:27PM 40.1224 -87.4432 219° Southwest  Level FlightAware Approximate
06:28PM 40.0194 -87.3811 180° South  Level Estimated
06:29PM 39.9164 -87.3193 178° South  Level Estimated
06:30PM 39.8196 -87.3961 211° Southwest  Level FlightAware Approximate
06:31PM 39.7227 -87.4727 211° Southwest  Level FlightAware Approximate
06:32PM 39.6203 -87.4093 178° South  Level Estimated
06:33PM 39.5166 -87.4688 204° Southwest  Level FlightAware Approximate
06:34PM 39.4129 -87.5282 204° Southwest  Level FlightAware Approximate
06:35PM 39.3111 -87.4635 178° South  Level Estimated
06:36PM 39.1992 -87.4870 189° South  Level FlightAware Approximate
06:37PM 39.0873 -87.5103 189° South  Level FlightAware Approximate
06:38PM 38.9753 -87.5336 189° South  Level FlightAware Approximate
06:39PM 38.8634 -87.5568 189° South  Level FlightAware Approximate
06:40PM 38.7514 -87.5799 189° South  Level FlightAware Approximate
06:41PM 38.6395 -87.6029 189° South  Level FlightAware Approximate
06:42PM 38.5275 -87.6259 189° South  Level FlightAware Approximate
06:43PM 38.4156 -87.6488 189° South  Level FlightAware Approximate
06:44PM 38.3158 -87.5802 154° Southeast  Level Estimated
06:45PM 38.2041 -87.5554 170° South  Level FlightAware Approximate
06:46PM 38.0924 -87.5306 170° South  Level FlightAware Approximate
06:47PM 37.9807 -87.5060 170° South  Level FlightAware Approximate
06:48PM 37.8690 -87.4814 170° South  Level FlightAware Approximate
06:49PM 37.7573 -87.4568 170° South  Level FlightAware Approximate
06:50PM 37.6455 -87.4324 170° South  Level FlightAware Approximate
06:51PM 37.5464 -87.3628 155° Southeast  Level Estimated
06:52PM 37.4399 -87.3138 160° South  Level FlightAware Approximate
06:53PM 37.3334 -87.2649 160° South  Level FlightAware Approximate
06:54PM 37.2269 -87.2161 160° South  Level FlightAware Approximate
06:55PM 37.1203 -87.1675 160° South  Level FlightAware Approximate
06:56PM 37.0137 -87.1190 160° South  Level FlightAware Approximate
06:57PM 36.9071 -87.0706 160° South  Level FlightAware Approximate
06:58PM 36.8005 -87.0224 160° South  Level FlightAware Approximate
06:59PM 36.7017 -86.9530 155° Southeast  Level Estimated
07:00PM 36.5959 -86.9024 159° South  Level FlightAware Approximate
07:01PM 36.4900 -86.8520 159° South  Level FlightAware Approximate
07:02PM 36.3912 -86.7827 143° Southeast  Level Estimated
07:03PM 36.2952 -86.7078 148° Southeast  Level FlightAware Approximate
07:04PM 36.1992 -86.6331 148° Southeast  Level FlightAware Approximate
07:05PM 36.1031 -86.5586 148° Southeast  Level FlightAware Approximate
07:06PM 36.0069 -86.4843 148° Southeast  Level FlightAware Approximate
07:07PM 35.9107 -86.4101 148° Southeast  Level FlightAware Approximate
07:08PM 35.8145 -86.3362 148° Southeast  Level FlightAware Approximate
07:09PM 35.7153 -86.2685 144° Southeast  Level Estimated
07:10PM 35.6237 -86.1862 144° Southeast  Level FlightAware Approximate
07:11PM 35.5320 -86.1042 144° Southeast  Level FlightAware Approximate
07:12PM 35.4403 -86.0223 144° Southeast  Level FlightAware Approximate
07:13PM 35.3485 -85.9407 144° Southeast  Level FlightAware Approximate
07:14PM 35.2567 -85.8592 144° Southeast  Level FlightAware Approximate
07:15PM 35.1648 -85.7778 144° Southeast  Level FlightAware Approximate
07:16PM 35.0729 -85.6967 144° Southeast  Level FlightAware Approximate
07:17PM 34.9809 -85.6158 144° Southeast  Level FlightAware Approximate
07:18PM 34.8888 -85.5350 144° Southeast  Level FlightAware Approximate
07:19PM 34.7967 -85.4545 144° Southeast  Level FlightAware Approximate
07:20PM 34.7046 -85.3740 144° Southeast  Level FlightAware Approximate
07:21PM 34.6124 -85.2938 144° Southeast  Level FlightAware Approximate
07:22PM 34.5201 -85.2138 144° Southeast  Level FlightAware Approximate
07:23PM 34.4278 -85.1339 144° Southeast  Level FlightAware Approximate
07:24PM 34.3354 -85.0542 145° Southeast  Level FlightAware Approximate
07:25PM 34.2344 -84.9920 144° Southeast  Level Estimated
07:26PM 34.1439 -84.9094 143° Southeast  Level FlightAware Approximate
07:27PM 34.0533 -84.8271 143° Southeast  Level FlightAware Approximate
07:28PM 33.9626 -84.7449 143° Southeast  Level FlightAware Approximate
07:29PM 33.8611 -84.6841 160° South  Level Estimated
07:30PM 33.7601 -84.6220 153° Southeast  Level FlightAware Approximate
07:31PM 33.6591 -84.5601 153° Southeast  Level FlightAware Approximate
07:32PM 33.5581 -84.4983 153° Southeast  Level FlightAware Approximate
07:33PM 33.4571 -84.4366 153° Southeast  Level FlightAware Approximate
07:34PM 33.3553 -84.3766 161° South  Level Estimated
07:35PM 33.2508 -84.3241 157° South  Level FlightAware Approximate
07:36PM 33.1462 -84.2717 157° South  Level FlightAware Approximate
07:37PM 33.0416 -84.2195 157° South  Level FlightAware Approximate
07:38PM 32.9399 -84.1597 161° South  Level Estimated
07:39PM 32.8331 -84.1143 160° South  Level FlightAware Approximate
07:40PM 32.7263 -84.0691 160° South  Level FlightAware Approximate
07:41PM 32.6195 -84.0240 160° South  Level FlightAware Approximate
07:42PM 32.5126 -83.9790 160° South  Level FlightAware Approximate
07:43PM 32.4058 -83.9341 160° South  Level FlightAware Approximate
07:44PM 32.2989 -83.8892 160° South  Level FlightAware Approximate
07:45PM 32.1920 -83.8445 161° South  Level FlightAware Approximate
07:46PM 32.0851 -83.7999 161° South  Level FlightAware Approximate
07:47PM 31.9840 -83.7395 162° South  Level Estimated
07:48PM 31.8759 -83.6990 162° South  Level FlightAware Approximate
07:49PM 31.7679 -83.6587 162° South  Level FlightAware Approximate
07:50PM 31.6598 -83.6184 162° South  Level FlightAware Approximate
07:51PM 31.5590 -83.5574 160° South  Level Estimated
07:52PM 31.4508 -83.5174 162° South  Level FlightAware Approximate
07:53PM 31.3427 -83.4775 163° South  Level FlightAware Approximate
07:54PM 31.2345 -83.4378 163° South  Level FlightAware Approximate
07:55PM 31.1264 -83.3980 163° South  Level FlightAware Approximate
07:56PM 31.0261 -83.3361 158° South  Level Estimated
07:57PM 30.9186 -83.2942 162° South  Level FlightAware Approximate
07:58PM 30.8110 -83.2524 162° South  Level FlightAware Approximate
07:59PM 30.7111 -83.1901 156° South  Level Estimated
08:00PM 30.6058 -83.1411 158° South  Level FlightAware Approximate
08:01PM 30.5005 -83.0922 158° South  Level FlightAware Approximate
08:02PM 30.3953 -83.0434 158° South  Level FlightAware Approximate
08:03PM 30.2899 -82.9948 158° South  Level FlightAware Approximate
08:04PM 30.1846 -82.9462 158° South  Level FlightAware Approximate
08:05PM 30.0793 -82.8977 158° South  Level FlightAware Approximate
08:06PM 29.9739 -82.8493 158° South  Level FlightAware Approximate
08:07PM 29.8685 -82.8010 158° South  Level FlightAware Approximate
08:08PM 29.7631 -82.7529 158° South  Level FlightAware Approximate
08:09PM 29.6577 -82.7048 158° South  Level FlightAware Approximate
08:10PM 29.5590 -82.6405 156° South  Level Estimated
08:11PM 29.4531 -82.5942 159° South  Level FlightAware Approximate
08:12PM 29.3546 -82.5297 193° South  Level Estimated
08:13PM 29.2416 -82.5411 185° South  Level FlightAware Approximate
08:14PM 29.1287 -82.5525 185° South  Level FlightAware Approximate
08:15PM 29.0157 -82.5638 185° South  Level FlightAware Approximate
08:16PM 28.9028 -82.5751 185° South  Level FlightAware Approximate
08:17PM 28.7898 -82.5864 185° South  Level FlightAware Approximate
08:18PM 28.6769 -82.5976 185° South  Level FlightAware Approximate
08:19PM 28.5851 -82.5218 194° South  Level Estimated
08:20PM 28.4763 -82.5582 196° South  Level FlightAware Approximate
08:21PM 28.3675 -82.5945 196° South  Level FlightAware Approximate
08:22PM 28.2796 -82.5133 161° South  Level Estimated
08:23PM 28.1702 -82.5472 195° South  Level FlightAware Approximate
08:24PM 28.0843 -82.4633 163° South  Level Estimated
08:25PM 27.9717 -82.4788 187° South  Level FlightAware Approximate
08:26PM 27.8592 -82.4942 187° South  Level FlightAware Approximate
08:27PM 27.7778 -82.4050 162° South  Level Estimated
08:28PM 27.6645 -82.3997 178° South  Level FlightAware Approximate
08:29PM 27.5512 -82.3944 178° South  Level FlightAware Approximate
08:30PM 27.4379 -82.3892 178° South  Level FlightAware Approximate
08:31PM 27.3246 -82.3839 178° South  Level FlightAware Approximate
08:32PM 27.2536 -82.2845 160° South  Level Estimated
08:33PM 27.1825 -82.1852 161° South  Level Estimated
08:34PM 27.0692 -82.1910 183° South  Level FlightAware Approximate
08:35PM 27.0019 -82.0885 138° Southeast  Level Estimated
08:36PM 26.9346 -81.9862 138° Southeast  Level Estimated
08:37PM 26.8671 -81.8840 138° Southeast  Level Estimated
08:38PM 26.7996 -81.7819 138° Southeast  Level Estimated
08:39PM 26.7320 -81.6800 138° Southeast  Level Estimated
08:40PM 26.6644 -81.5781 110° East  Level Estimated
08:41PM 26.5510 -81.5759 179° South  Level FlightAware Approximate
08:42PM 26.4893 -81.4696 110° East  Level Estimated
08:43PM 26.4275 -81.3633 114° Southeast  Level Estimated
08:44PM 26.3657 -81.2572 110° East  Level Estimated
08:45PM 26.3038 -81.1513 108° East  Level Estimated
08:46PM 26.2418 -81.0454 114° Southeast  Level Estimated
08:47PM 26.1797 -80.9396 110° East  Level Estimated
08:48PM 26.1176 -80.8340 85° East  Level Estimated
08:49PM 26.0236 -80.7634 146° Southeast  Level FlightAware Approximate
08:50PM 25.9701 -80.6521 119° Southeast  Level Estimated
08:51PM 25.9166 -80.5409 138° Southeast  Level Estimated
08:52PM 25.8630 -80.4299 126° Southeast  Level Estimated
08:53PM 25.8093 -80.3189 20° North  Level Estimated
08:54PM 25.7954 -80.2901 20° North  Level Estimated
08:55PM 25.7954 -80.2901 20° North  Level Estimated
08:56PM 25.7954 -80.2901 20° North  Level Estimated